Time;durP1;ratioP1;P1;durP2;ratioP2;P2;SDS_P1;SDS_P2;PMS_P1;PMS_P2;Temp;Humidity;BMP_temperature;BMP_pressure;BME280_temperature;BME280_humidity;BME280_pressure;Samples;Min_cycle;Max_cycle;Signal;HPM_P1;HPM_P2
2021/01/01 00:01:55;;;;;;;1999.90;999.90;;;1.00;99.90;;;;;;5044383;28;20198;-46
2021/01/01 00:04:21;;;;;;;1999.90;999.90;;;0.90;99.90;;;;;;5037657;28;20471;-47
2021/01/01 00:06:47;;;;;;;1999.90;999.90;;;0.80;99.90;;;;;;5036815;28;20823;-47
2021/01/01 00:09:14;;;;;;;1999.90;999.90;;;0.80;99.90;;;;;;5042318;28;20593;-47
2021/01/01 00:11:40;;;;;;;1999.90;999.90;;;0.60;99.90;;;;;;5040211;28;20441;-47
2021/01/01 00:14:05;;;;;;;1999.90;999.90;;;0.60;99.90;;;;;;5040668;28;20438;-47
2021/01/01 00:16:31;;;;;;;1999.90;999.90;;;0.50;99.90;;;;;;5038784;28;20218;-47
2021/01/01 00:18:56;;;;;;;1999.90;999.90;;;0.40;99.90;;;;;;5041471;28;20206;-47
2021/01/01 00:21:28;;;;;;;1999.90;999.90;;;0.40;99.90;;;;;;5043732;28;20183;-47
2021/01/01 00:23:54;;;;;;;1999.90;999.90;;;0.40;99.90;;;;;;5050438;28;20214;-47
2021/01/01 00:26:20;;;;;;;1999.90;999.90;;;0.40;99.90;;;;;;5047001;28;20551;-47
2021/01/01 00:28:46;;;;;;;1999.90;999.90;;;0.30;99.90;;;;;;5044998;28;20210;-47
2021/01/01 00:31:23;;;;;;;1999.90;999.90;;;0.30;99.90;;;;;;5044286;28;20226;-47
2021/01/01 00:33:50;;;;;;;1999.90;999.90;;;0.30;99.90;;;;;;5040190;28;20444;-46
2021/01/01 00:36:17;;;;;;;1999.90;999.90;;;0.20;99.90;;;;;;5048418;28;20530;-47
2021/01/01 00:38:50;;;;;;;1999.90;999.90;;;0.20;99.90;;;;;;5049864;28;20448;-47
2021/01/01 15:04:04;;;;;;;1999.90;999.90;;;2.60;99.90;;;;;;5143036;27;20559;-47
2021/01/01 15:06:30;;;;;;;1999.90;999.90;;;2.50;99.90;;;;;;5124383;28;20528;-48
2021/01/01 15:08:55;;;;;;;1999.90;999.90;;;2.50;99.90;;;;;;5126613;28;20993;-48
2021/01/01 15:11:22;;;;;;;1999.90;999.90;;;2.50;99.90;;;;;;5125622;28;20516;-48
2021/01/01 15:13:48;;;;;;;1999.90;999.90;;;2.50;99.90;;;;;;5125419;27;20277;-47
2021/01/01 15:16:14;;;;;;;1999.90;999.90;;;2.50;99.90;;;;;;5127165;28;20457;-48
2021/01/01 15:18:40;;;;;;;1999.90;999.90;;;2.50;99.90;;;;;;5124960;27;20430;-49
2021/01/01 15:21:05;;;;;;;1999.90;999.90;;;2.40;99.90;;;;;;5127723;28;20194;-49
2021/01/01 15:23:33;;;;;;;1999.90;999.90;;;2.40;99.90;;;;;;5126242;27;20200;-48
2021/01/01 15:25:59;;;;;;;1999.90;999.90;;;2.40;99.90;;;;;;5127713;27;20240;-48
2021/01/01 15:28:24;;;;;;;1999.90;999.90;;;2.40;99.90;;;;;;5126875;28;20836;-48
2021/01/01 15:30:50;;;;;;;1999.90;999.90;;;2.40;99.90;;;;;;5124434;28;20644;-48
2021/01/01 15:33:16;;;;;;;1999.90;999.90;;;2.40;99.90;;;;;;5125726;27;20572;-47
2021/01/01 15:35:42;;;;;;;1999.90;999.90;;;2.40;99.90;;;;;;5125269;28;20199;-47
2021/01/01 15:38:08;;;;;;;1999.90;999.90;;;2.40;99.90;;;;;;5126470;27;20533;-48
2021/01/01 15:40:33;;;;;;;1999.90;999.90;;;2.40;99.90;;;;;;5126391;27;20266;-48
2021/01/01 15:42:59;;;;;;;1999.90;999.90;;;2.40;99.90;;;;;;5122732;28;20545;-47
2021/01/01 15:45:25;;;;;;;1999.90;999.90;;;2.40;99.90;;;;;;5125456;28;20199;-48
2021/01/01 15:47:51;;;;;;;1999.90;999.90;;;2.40;99.90;;;;;;5123908;28;20180;-48
2021/01/01 15:50:16;;;;;;;1999.90;999.90;;;2.30;99.90;;;;;;5126307;28;20965;-48
2021/01/01 15:52:42;;;;;;;1999.90;999.90;;;2.40;99.90;;;;;;5126932;28;20184;-48
2021/01/01 15:55:08;;;;;;;1999.90;999.90;;;2.40;99.90;;;;;;5123335;28;20180;-48
2021/01/01 15:57:33;;;;;;;1999.90;999.90;;;2.30;99.90;;;;;;5125344;28;20700;-48
2021/01/01 15:59:59;;;;;;;1999.90;999.90;;;2.30;99.90;;;;;;5116363;28;20434;-48
2021/01/01 16:02:24;;;;;;;1999.90;999.90;;;2.30;99.90;;;;;;5119668;28;20212;-48
2021/01/01 16:04:50;;;;;;;1999.90;999.90;;;2.30;99.90;;;;;;5126594;28;20176;-48
2021/01/01 16:07:15;;;;;;;1999.90;999.90;;;2.20;99.90;;;;;;5126999;27;20210;-48
2021/01/01 16:09:41;;;;;;;1999.90;999.90;;;2.20;99.90;;;;;;5124842;28;20180;-48
2021/01/01 16:12:07;;;;;;;1999.90;999.90;;;2.20;99.90;;;;;;5120120;28;20758;-48
2021/01/01 16:14:32;;;;;;;1999.90;999.90;;;2.20;99.90;;;;;;5109816;28;20215;-47
2021/01/01 16:16:58;;;;;;;1999.90;999.90;;;2.20;99.90;;;;;;5107563;28;20201;-48
2021/01/01 16:19:24;;;;;;;1999.90;999.90;;;2.20;99.90;;;;;;5107258;28;20602;-47
2021/01/01 16:21:50;;;;;;;1999.90;999.90;;;2.20;99.90;;;;;;5110084;28;20226;-48
2021/01/01 16:24:16;;;;;;;1999.90;999.90;;;2.20;99.90;;;;;;5108508;28;20426;-48
2021/01/01 16:26:47;;;;;;;1999.90;999.90;;;2.10;99.90;;;;;;5106177;28;20328;-48
2021/01/01 16:29:14;;;;;;;1999.90;999.90;;;2.10;99.90;;;;;;5109340;28;20212;-48
2021/01/01 16:31:42;;;;;;;1999.90;999.90;;;2.20;99.90;;;;;;5112071;28;21208;-47
2021/01/01 16:34:08;;;;;;;1999.90;999.90;;;2.20;99.90;;;;;;5107147;28;20423;-48
2021/01/01 16:36:35;;;;;;;1999.90;999.90;;;2.20;99.90;;;;;;5111763;28;20437;-48
2021/01/01 16:39:01;;;;;;;1999.90;999.90;;;2.10;99.90;;;;;;5112546;28;20418;-48
2021/01/01 16:41:30;;;;;;;1999.90;999.90;;;2.10;99.90;;;;;;5103005;28;20794;-48
2021/01/01 16:43:56;;;;;;;1999.90;999.90;;;2.10;99.90;;;;;;5110363;28;20992;-48
2021/01/01 16:46:22;;;;;;;1999.90;999.90;;;2.10;99.90;;;;;;5104003;28;20431;-48
2021/01/01 16:48:47;;;;;;;1999.90;999.90;;;2.10;99.90;;;;;;5111066;28;20210;-48
2021/01/01 16:51:13;;;;;;;1999.90;999.90;;;2.00;99.90;;;;;;5110045;28;20250;-48
2021/01/01 16:53:39;;;;;;;1999.90;999.90;;;2.00;99.90;;;;;;5112667;28;20589;-48
2021/01/01 16:56:04;;;;;;;1999.90;999.90;;;2.00;99.90;;;;;;5111411;28;20219;-46
2021/01/01 16:58:32;;;;;;;1999.90;999.90;;;1.90;99.90;;;;;;5106046;28;20180;-45
2021/01/01 17:00:58;;;;;;;1999.90;999.90;;;1.90;99.90;;;;;;5100652;28;20947;-46
2021/01/01 17:03:23;;;;;;;1999.90;999.90;;;1.90;99.90;;;;;;5106981;28;20469;-46
2021/01/01 17:05:49;;;;;;;1999.90;999.90;;;1.90;99.90;;;;;;5103601;28;20275;-47
2021/01/01 17:08:14;;;;;;;1999.90;999.90;;;1.90;99.90;;;;;;5104832;28;20209;-46
2021/01/01 17:10:40;;;;;;;1999.90;999.90;;;1.80;99.90;;;;;;5112365;28;20672;-49
2021/01/01 17:13:06;;;;;;;1999.90;999.90;;;1.80;99.90;;;;;;5112365;28;20264;-49
2021/01/01 17:15:31;;;;;;;1999.90;999.90;;;1.80;99.90;;;;;;5102399;28;20177;-47
2021/01/01 17:17:57;;;;;;;1999.90;999.90;;;1.80;99.90;;;;;;5112749;28;20522;-49
2021/01/01 17:20:22;;;;;;;1999.90;999.90;;;1.80;99.90;;;;;;5112760;28;20197;-48
2021/01/01 17:22:48;;;;;;;1999.90;999.90;;;1.80;99.90;;;;;;5112128;28;20209;-49
2021/01/01 17:25:14;;;;;;;1999.90;999.90;;;1.90;99.90;;;;;;5111625;28;20215;-49
2021/01/01 17:27:39;;;;;;;1999.90;999.90;;;1.90;99.90;;;;;;5110250;28;20184;-48
2021/01/01 17:30:07;;;;;;;1999.90;999.90;;;2.10;99.90;;;;;;5110520;28;20192;-49
2021/01/01 17:32:35;;;;;;;1999.90;999.90;;;2.00;99.90;;;;;;5109607;28;20599;-49
2021/01/01 17:35:01;;;;;;;1999.90;999.90;;;1.90;99.90;;;;;;5108653;28;20468;-49
2021/01/01 17:37:26;;;;;;;1999.90;999.90;;;1.80;99.90;;;;;;5111560;28;20442;-49
2021/01/01 17:39:52;;;;;;;1999.90;999.90;;;1.80;99.90;;;;;;5109505;28;20192;-48
2021/01/01 17:42:17;;;;;;;1999.90;999.90;;;1.80;99.90;;;;;;5103371;28;20197;-49
2021/01/01 17:44:43;;;;;;;1999.90;999.90;;;1.80;99.90;;;;;;5109656;28;20185;-49
2021/01/01 17:47:09;;;;;;;1999.90;999.90;;;1.80;99.90;;;;;;5105201;28;20197;-48
2021/01/01 17:49:34;;;;;;;1999.90;999.90;;;1.80;99.90;;;;;;5111034;28;20267;-48
2021/01/01 17:52:05;;;;;;;1999.90;999.90;;;1.80;99.90;;;;;;5110702;28;20191;-48
2021/01/01 17:54:30;;;;;;;1999.90;999.90;;;1.70;99.90;;;;;;5103347;28;20286;-45
2021/01/01 17:56:56;;;;;;;1999.90;999.90;;;1.70;99.90;;;;;;5104261;28;20541;-48
2021/01/01 17:59:21;;;;;;;1999.90;999.90;;;1.80;99.90;;;;;;5103477;28;20193;-48
2021/01/01 18:01:47;;;;;;;1999.90;999.90;;;1.70;99.90;;;;;;5104079;28;20646;-46
2021/01/01 18:04:13;;;;;;;1999.90;999.90;;;1.70;99.90;;;;;;5110085;28;20204;-46
2021/01/01 18:06:38;;;;;;;1999.90;999.90;;;1.80;99.90;;;;;;5105983;28;20576;-47
2021/01/01 18:09:04;;;;;;;1999.90;999.90;;;1.60;99.90;;;;;;5109810;28;20646;-48
2021/01/01 18:11:36;;;;;;;1999.90;999.90;;;1.60;99.90;;;;;;5107723;28;20260;-47
2021/01/01 18:14:02;;;;;;;1999.90;999.90;;;1.60;99.90;;;;;;5106702;28;20212;-47
2021/01/01 18:16:27;;;;;;;1999.90;999.90;;;1.60;99.90;;;;;;5108661;28;20506;-47
2021/01/01 18:18:53;;;;;;;1999.90;999.90;;;1.50;99.90;;;;;;5107301;28;20439;-47
2021/01/01 18:21:24;;;;;;;1999.90;999.90;;;1.50;99.90;;;;;;5110481;28;20846;-47
2021/01/01 18:23:54;;;;;;;1999.90;999.90;;;1.50;99.90;;;;;;5108181;28;20781;-48
2021/01/01 18:26:21;;;;;;;1999.90;999.90;;;1.50;99.90;;;;;;5110518;28;20484;-48
2021/01/01 18:28:47;;;;;;;1999.90;999.90;;;1.50;99.90;;;;;;5107535;28;20446;-47
2021/01/01 18:31:18;;;;;;;1999.90;999.90;;;1.50;99.90;;;;;;5109694;28;20423;-47
2021/01/01 18:33:46;;;;;;;1999.90;999.90;;;1.50;99.90;;;;;;5106746;28;20438;-51
2021/01/01 18:36:24;;;;;;;1999.90;999.90;;;1.50;99.90;;;;;;5107446;28;20458;-48
2021/01/01 18:38:58;;;;;;;1999.90;999.90;;;1.40;99.90;;;;;;5109654;28;20984;-47
2021/01/01 18:41:30;;;;;;;1999.90;999.90;;;1.40;99.90;;;;;;5110067;28;20419;-47
2021/01/01 18:44:05;;;;;;;1999.90;999.90;;;1.40;99.90;;;;;;5108838;28;20465;-47
2021/01/01 18:46:32;;;;;;;1999.90;999.90;;;1.50;99.90;;;;;;5108341;28;20438;-47
2021/01/01 18:48:58;;;;;;;1999.90;999.90;;;1.50;99.90;;;;;;5106542;28;20528;-47
2021/01/01 18:51:25;;;;;;;1999.90;999.90;;;1.40;99.90;;;;;;5111209;28;20430;-47
2021/01/01 18:54:06;;;;;;;1999.90;999.90;;;1.40;99.90;;;;;;5118188;28;20394;-46
2021/01/01 18:56:34;;;;;;;1999.90;999.90;;;1.30;99.90;;;;;;5112026;28;20506;-47
2021/01/01 18:59:08;;;;;;;1999.90;999.90;;;1.30;99.90;;;;;;5110716;28;20434;-47
2021/01/01 19:01:42;;;;;;;1999.90;999.90;;;1.30;99.90;;;;;;5112862;28;20810;-47
2021/01/01 19:04:33;;;;;;;1999.90;999.90;;;1.40;99.90;;;;;;5109874;28;20434;-48
2021/01/01 19:07:04;;;;;;;1999.90;999.90;;;1.40;99.90;;;;;;5112257;28;20461;-47
2021/01/01 19:09:38;;;;;;;1999.90;999.90;;;1.40;99.90;;;;;;5112638;28;20907;-47
2021/01/01 19:12:05;;;;;;;1999.90;999.90;;;1.40;99.90;;;;;;5113097;28;20421;-47
2021/01/01 19:14:35;;;;;;;1999.90;999.90;;;1.30;99.90;;;;;;5112787;28;20493;-47
2021/01/01 19:17:12;;;;;;;1999.90;999.90;;;1.20;99.90;;;;;;5109524;28;21088;-47
2021/01/01 19:19:41;;;;;;;1999.90;999.90;;;1.20;99.90;;;;;;5110830;28;20426;-47
2021/01/01 19:22:25;;;;;;;1999.90;999.90;;;1.30;99.90;;;;;;5112546;28;20802;-47
2021/01/01 19:24:56;;;;;;;1999.90;999.90;;;1.30;99.90;;;;;;5109941;28;20962;-47
2021/01/01 19:27:51;;;;;;;1999.90;999.90;;;1.40;99.90;;;;;;5111189;28;20479;-47
2021/01/01 19:30:52;;;;;;;1999.90;999.90;;;1.40;99.90;;;;;;5110141;28;20438;-47
2021/01/01 19:33:36;;;;;;;1999.90;999.90;;;1.30;99.90;;;;;;5108976;28;20501;-47
2021/01/01 19:36:17;;;;;;;1999.90;999.90;;;1.20;99.90;;;;;;5090043;28;20449;-47
2021/01/01 19:39:27;;;;;;;1999.90;999.90;;;1.20;99.90;;;;;;5100761;28;20434;-47
2021/01/01 19:42:25;;;;;;;1999.90;999.90;;;1.20;99.90;;;;;;5106023;28;20912;-48
2021/01/01 19:44:56;;;;;;;1999.90;999.90;;;1.20;99.90;;;;;;5098303;28;20439;-47
2021/01/01 19:48:00;;;;;;;1999.90;999.90;;;1.10;99.90;;;;;;5102716;28;20527;-47
2021/01/01 19:50:46;;;;;;;1999.90;999.90;;;1.20;99.90;;;;;;5102457;28;20446;-47
2021/01/01 19:53:59;;;;;;;1999.90;999.90;;;1.30;99.90;;;;;;5103144;28;20517;-48
2021/01/01 19:56:29;;;;;;;1999.90;999.90;;;1.30;99.90;;;;;;5044525;28;20506;-48
2021/01/01 19:59:03;;;;;;;1999.90;999.90;;;1.30;99.90;;;;;;5059486;28;20447;-48
2021/01/01 20:01:35;;;;;;;1999.90;999.90;;;1.20;99.90;;;;;;5084648;27;20437;-47
2021/01/01 20:04:09;;;;;;;1999.90;999.90;;;1.20;99.90;;;;;;5105922;28;20554;-47
2021/01/01 20:07:02;;;;;;;1999.90;999.90;;;1.10;99.90;;;;;;5105034;27;20453;-47
2021/01/01 20:09:36;;;;;;;1999.90;999.90;;;1.10;99.90;;;;;;5103897;28;20438;-48
2021/01/01 20:12:24;;;;;;;1999.90;999.90;;;1.10;99.90;;;;;;5104519;28;20430;-48
2021/01/01 20:14:59;;;;;;;1999.90;999.90;;;1.20;99.90;;;;;;5104455;28;20430;-47
2021/01/01 20:17:25;;;;;;;1999.90;999.90;;;1.30;99.90;;;;;;5101825;28;20449;-47
2021/01/01 20:19:53;;;;;;;1999.90;999.90;;;1.10;99.90;;;;;;5104281;28;20445;-47
2021/01/01 20:22:21;;;;;;;1999.90;999.90;;;1.00;99.90;;;;;;5102044;27;20466;-47
2021/01/01 20:24:48;;;;;;;1999.90;999.90;;;1.00;99.90;;;;;;5105733;28;20450;-48
2021/01/01 20:27:29;;;;;;;1999.90;999.90;;;1.00;99.90;;;;;;5104961;28;20577;-47
2021/01/01 20:30:03;;;;;;;1999.90;999.90;;;1.00;99.90;;;;;;5108260;28;20524;-47
2021/01/01 20:32:33;;;;;;;1999.90;999.90;;;0.90;99.90;;;;;;5106669;28;20447;-48
2021/01/01 20:35:04;;;;;;;1999.90;999.90;;;0.90;99.90;;;;;;5106371;28;21205;-48
2021/01/01 20:37:30;;;;;;;1999.90;999.90;;;1.00;99.90;;;;;;5102264;28;20461;-48
2021/01/01 20:40:12;;;;;;;1999.90;999.90;;;1.00;99.90;;;;;;5103515;27;20502;-48
2021/01/01 20:43:16;;;;;;;1999.90;999.90;;;1.00;99.90;;;;;;5101835;28;20204;-48
2021/01/01 20:57:14;;;;;;;1999.90;999.90;;;0.80;99.90;;;;;;5101018;27;20449;-48
2021/01/01 20:59:47;;;;;;;1999.90;999.90;;;0.80;99.90;;;;;;5102627;28;20473;-47
2021/01/01 21:02:14;;;;;;;1999.90;999.90;;;0.70;99.90;;;;;;5104700;28;20474;-48
2021/01/01 21:04:41;;;;;;;1999.90;999.90;;;0.70;99.90;;;;;;5098530;28;20439;-48
2021/01/01 21:07:26;;;;;;;1999.90;999.90;;;0.80;99.90;;;;;;5100814;28;20465;-48
2021/01/01 21:10:06;;;;;;;1999.90;999.90;;;0.70;99.90;;;;;;5101983;28;20529;-48
2021/01/01 21:13:00;;;;;;;1999.90;999.90;;;0.70;99.90;;;;;;5102383;28;20434;-48
2021/01/01 21:15:48;;;;;;;1999.90;999.90;;;0.90;99.90;;;;;;5095123;28;20543;-48
2021/01/01 21:18:43;;;;;;;1999.90;999.90;;;0.90;99.90;;;;;;5100509;28;20528;-47
2021/01/01 21:21:44;;;;;;;1999.90;999.90;;;0.90;99.90;;;;;;5102228;28;20446;-48
2021/01/01 21:24:43;;;;;;;1999.90;999.90;;;0.90;99.90;;;;;;5104577;28;20473;-48
2021/01/01 21:27:40;;;;;;;1999.90;999.90;;;0.70;99.90;;;;;;5101207;28;20880;-48
2021/01/01 21:30:51;;;;;;;1999.90;999.90;;;0.70;99.90;;;;;;5106325;28;20979;-47
2021/01/01 21:33:45;;;;;;;1999.90;999.90;;;0.70;99.90;;;;;;5101266;28;20506;-47
2021/01/01 21:36:40;;;;;;;1999.90;999.90;;;0.80;99.90;;;;;;5099984;28;20456;-47
2021/01/01 21:39:25;;;;;;;1999.90;999.90;;;0.70;99.90;;;;;;5092749;28;20529;-49
2021/01/01 21:42:25;;;;;;;1999.90;999.90;;;0.70;99.90;;;;;;5101747;28;20508;-47
2021/01/01 21:45:15;;;;;;;1999.90;999.90;;;0.70;99.90;;;;;;5098911;28;20461;-47
2021/01/01 21:48:01;;;;;;;1999.90;999.90;;;0.60;99.90;;;;;;5098824;27;20458;-47
2021/01/01 21:50:31;;;;;;;1999.90;999.90;;;0.60;99.90;;;;;;5100345;28;20873;-46
2021/01/01 21:52:56;;;;;;;1999.90;999.90;;;0.50;99.90;;;;;;5106271;28;20434;-45
2021/01/01 21:55:23;;;;;;;1999.90;999.90;;;0.50;99.90;;;;;;5102143;28;20434;-47
2021/01/01 21:57:49;;;;;;;1999.90;999.90;;;0.50;99.90;;;;;;5099058;28;20191;-46
2021/01/01 22:00:16;;;;;;;1999.90;999.90;;;0.50;99.90;;;;;;5104052;28;20438;-47
2021/01/01 22:02:42;;;;;;;1999.90;999.90;;;0.40;99.90;;;;;;5101964;28;20475;-49
2021/01/01 22:05:09;;;;;;;1999.90;999.90;;;0.40;99.90;;;;;;5106836;27;20786;-47
2021/01/01 22:07:36;;;;;;;1999.90;999.90;;;0.30;99.90;;;;;;5103706;28;20476;-50
2021/01/01 22:10:03;;;;;;;1999.90;999.90;;;0.40;99.90;;;;;;5103868;28;20441;-47
2021/01/01 22:12:29;;;;;;;1999.90;999.90;;;0.40;99.90;;;;;;5104621;28;20463;-47
2021/01/01 22:14:54;;;;;;;1999.90;999.90;;;0.30;99.90;;;;;;5107794;28;20950;-46
2021/01/01 22:17:27;;;;;;;1999.90;999.90;;;0.30;99.90;;;;;;5105510;28;20211;-46
2021/01/01 22:19:54;;;;;;;1999.90;999.90;;;0.20;99.90;;;;;;5100082;28;20279;-47
2021/01/01 22:22:20;;;;;;;1999.90;999.90;;;0.20;99.90;;;;;;5108969;27;20465;-48
2021/01/01 22:24:46;;;;;;;1999.90;999.90;;;0.20;99.90;;;;;;5104997;28;21460;-48
2021/01/01 22:27:12;;;;;;;1999.90;999.90;;;0.20;99.90;;;;;;5100308;28;20591;-46
2021/01/01 22:29:37;;;;;;;1999.90;999.90;;;0.20;99.90;;;;;;5106426;28;20530;-48
2021/01/01 22:32:03;;;;;;;1999.90;999.90;;;0.10;99.90;;;;;;5102635;28;20181;-46
2021/01/01 22:34:29;;;;;;;1999.90;999.90;;;0.10;99.90;;;;;;5107111;28;20648;-45
2021/01/01 22:36:55;;;;;;;1999.90;999.90;;;0.10;99.90;;;;;;5105799;28;20537;-46
2021/01/01 22:39:21;;;;;;;1999.90;999.90;;;0.10;99.90;;;;;;5104471;28;20437;-45
2021/01/01 22:41:50;;;;;;;1999.90;999.90;;;0.10;99.90;;;;;;5107739;28;20176;-49
2021/01/01 22:44:16;;;;;;;1999.90;999.90;;;0.10;99.90;;;;;;5093926;28;20596;-46
2021/01/01 22:46:42;;;;;;;1999.90;999.90;;;0.10;99.90;;;;;;5087476;28;20935;-46
2021/01/01 22:49:08;;;;;;;1999.90;999.90;;;0.10;99.90;;;;;;5093779;28;20495;-46
2021/01/01 22:51:35;;;;;;;1999.90;999.90;;;0.10;99.90;;;;;;5105181;28;20461;-45
2021/01/01 22:54:02;;;;;;;1999.90;999.90;;;0.10;99.90;;;;;;5104351;28;20234;-46
2021/01/01 22:56:28;;;;;;;1999.90;999.90;;;0.00;99.90;;;;;;5103589;27;20462;-46
2021/01/01 22:58:59;;;;;;;1999.90;999.90;;;0.00;99.90;;;;;;5109922;28;20406;-46
2021/01/01 23:01:27;;;;;;;1999.90;999.90;;;-0.20;99.90;;;;;;5100163;28;20434;-48
2021/01/01 23:03:57;;;;;;;1999.90;999.90;;;-0.20;99.90;;;;;;5101125;28;21000;-46
2021/01/01 23:06:26;;;;;;;1999.90;999.90;;;-0.30;99.90;;;;;;5100488;28;20481;-46
2021/01/01 23:08:53;;;;;;;1999.90;999.90;;;-0.30;99.90;;;;;;5101606;28;20485;-46
2021/01/01 23:11:19;;;;;;;1999.90;999.90;;;-0.30;99.90;;;;;;5101534;28;20433;-46
2021/01/01 23:13:48;;;;;;;1999.90;999.90;;;-0.40;99.90;;;;;;5100113;28;21025;-46
2021/01/01 23:16:20;;;;;;;1999.90;999.90;;;-0.40;99.90;;;;;;5100662;28;20985;-46
2021/01/01 23:19:05;;;;;;;1999.90;999.90;;;-0.50;99.90;;;;;;5102291;28;20832;-46
2021/01/01 23:21:56;;;;;;;1999.90;999.90;;;-0.60;99.90;;;;;;5099488;28;20483;-46
2021/01/01 23:24:54;;;;;;;1999.90;999.90;;;-0.60;99.90;;;;;;5104900;28;20441;-46
2021/01/01 23:27:29;;;;;;;1999.90;999.90;;;-0.60;99.90;;;;;;5087018;28;20996;-46
2021/01/01 23:30:01;;;;;;;1999.90;999.90;;;-0.60;99.90;;;;;;5100777;27;20409;-45
2021/01/01 23:32:47;;;;;;;1999.90;999.90;;;-0.60;99.90;;;;;;5105723;28;21128;-46
2021/01/01 23:35:17;;;;;;;1999.90;999.90;;;-0.60;99.90;;;;;;5108897;28;20496;-46
2021/01/01 23:38:09;;;;;;;1999.90;999.90;;;-0.60;99.90;;;;;;5096905;28;20435;-45
2021/01/01 23:40:56;;;;;;;1999.90;999.90;;;-0.50;99.90;;;;;;5109375;28;20440;-45
2021/01/01 23:43:25;;;;;;;1999.90;999.90;;;-0.50;99.90;;;;;;5106043;28;21026;-46
2021/01/01 23:46:01;;;;;;;1999.90;999.90;;;-0.40;99.90;;;;;;5110416;28;20450;-46
2021/01/01 23:48:29;;;;;;;1999.90;999.90;;;-0.30;99.90;;;;;;5101764;28;20448;-47
2021/01/01 23:50:58;;;;;;;1999.90;999.90;;;-0.30;99.90;;;;;;5112164;27;20413;-46
2021/01/01 23:53:27;;;;;;;1999.90;999.90;;;-0.20;99.90;;;;;;5110253;28;20441;-46
2021/01/01 23:55:56;;;;;;;1999.90;999.90;;;-0.20;99.90;;;;;;5100907;28;20870;-46
2021/01/01 23:58:23;;;;;;;1999.90;999.90;;;0.00;99.90;;;;;;5105800;28;20431;-46
